Latest Coastal Weather Observations for Port Macquarie Airport

IDN60701

Issued at 9:55 pm EST Friday 29 August 2014 (issued every 10 minutes, with the page automatically refreshed every 10 minutes)

About coastal observations | Map of coastal stations | Coastal observations for NSW | Marine services | Other Formats
Station Details ID: 060139 Name: PORT MACQUARIE AIRPORT AWS Lat: -31.43 Lon: 152.87 Height: 4.2 m
Data from the previous 72 hours. | See also: Recent months at Port Macquarie Airport
Date/Time
EST
Temp

°C
Wind Pressure Rain
since 9am
mm
Weather Cloud Vis
km
Sea
Height
m
Swell
Dir
 
Speed
knots
Gust
knots
hPa Trend Height
m
Period
s
Dir
29/09:30pm 13.8 WSW 12 17 1020.4 - 0.0 - - 10 - - - -
29/09:00pm 14.0 WSW 13 20 1020.8 - 0.0 - - 10 - - - -
29/08:44pm 14.1 WSW 15 25 1020.8 - 0.0 - - 10 - - - -
29/08:30pm 14.0 WSW 15 21 1020.9 - 0.0 - - 10 - - - -
29/08:00pm 13.7 WSW 11 15 1021.1 - 0.0 - - 10 - - - -
29/07:30pm 13.6 WSW 9 14 1021.2 - 0.0 - - 10 - - - -
29/07:00pm 14.0 WSW 11 16 1021.2 - 0.0 - - 10 - - - -
29/06:30pm 14.2 WSW 13 17 1021.1 - 0.0 - - 10 - - - -
29/06:00pm 14.9 SW 14 19 1021.0 - 0.0 - Mostly cloudy 10 - - - -
29/05:36pm 15.1 SSW 17 23 1020.7 - 0.0 - Partly cloudy 10 - - - -
29/05:30pm 14.6 SW 7 9 1020.7 - 0.0 - Partly cloudy 10 - - - -
29/05:00pm 15.5 WSW 7 10 1020.3 - 0.0 - - 10 - - - -
29/04:30pm 16.4 SW 12 18 1020.3 - 0.0 - Partly cloudy 10 - - - -
29/04:03pm 16.4 SSW 16 26 1020.5 - 0.0 - Partly cloudy 10 - - - -
29/04:00pm 16.7 SSW 14 22 1020.5 - 0.0 - Partly cloudy 10 - - - -
29/03:30pm 17.9 SSW 10 15 1020.2 - 0.0 - Partly cloudy 10 - - - -
29/03:00pm 17.0 SW 12 17 1020.6 - 0.0 - Cloudy 10 - - - -
29/02:30pm 16.2 S 10 15 1020.7 - 0.0 - Partly cloudy 10 - - - -
29/02:00pm 18.1 SW 15 19 1020.6 - 0.0 - Partly cloudy 10 - - - -
29/01:58pm 18.0 SW 15 25 1020.6 - 0.0 - Partly cloudy 10 - - - -
29/01:30pm 17.2 SW 15 24 1021.0 - 0.0 - Partly cloudy 10 - - - -
29/01:00pm 16.8 SW 17 27 1021.5 - 0.0 - Partly cloudy 10 - - - -
29/12:30pm 16.8 SW 14 21 1021.9 - 0.0 - Partly cloudy 10 - - - -
29/12:00pm 17.3 WSW 15 24 1022.2 - 0.0 - Cloudy 10 - - - -
29/11:45am 17.6 SW 16 26 1022.2 - 0.0 - Partly cloudy 10 - - - -
29/11:30am 17.8 SW 16 22 1022.3 - 0.0 - Partly cloudy 10 - - - -
29/11:00am 17.3 WSW 17 25 1022.7 - 0.0 - Partly cloudy 10 - - - -
29/10:48am 17.1 WSW 17 27 1022.9 - 0.0 - Partly cloudy 10 - - - -
29/10:30am 16.9 SW 17 24 1023.0 - 0.0 - Partly cloudy 10 - - - -
29/10:00am 16.6 WSW 16 21 1023.1 - 0.0 - - 10 - - - -
29/09:30am 15.9 WSW 15 21 1023.4 - 0.0 - - 10 - - - -
29/09:00am 15.4 WSW 12 16 1023.7 - 8.0 - - 10 - - - -
29/08:30am 14.5 W 13 19 1023.8 - 8.0 - - 10 - - - -
29/08:00am 13.6 WSW 12 17 1024.0 - 8.0 - Partly cloudy 10 - - - -
29/07:30am 13.6 WSW 15 21 1023.9 - 8.0 - Partly cloudy 10 - - - -
29/07:00am 12.9 WSW 10 16 1023.5 - 8.0 - Partly cloudy 10 - - - -
29/06:30am 12.9 WSW 10 13 1023.4 - 8.0 - Partly cloudy 10 - - - -
29/06:00am 12.8 WSW 13 17 1023.1 - 8.0 - Partly cloudy 10 - - - -
29/05:30am 12.6 WSW 13 17 1022.8 - 8.0 - Partly cloudy 10 - - - -
29/05:00am 12.7 WSW 13 17 1022.8 - 8.0 - Partly cloudy 10 - - - -
29/04:30am 12.2 SW 13 17 1023.1 - 8.0 - Partly cloudy 10 - - - -
29/04:00am 12.6 WSW 10 13 1022.6 - 8.0 - Partly cloudy 10 - - - -
29/03:30am 12.6 SW 12 16 1022.8 - 8.0 - Partly cloudy 10 - - - -
29/03:00am 12.6 WSW 11 14 1022.5 - 8.0 - Mostly clear 10 - - - -
29/02:30am 12.5 WSW 13 17 1022.7 - 8.0 - Partly cloudy 10 - - - -
29/02:00am 12.5 WSW 11 14 1022.7 - 8.0 - Partly cloudy 10 - - - -
29/01:30am 12.2 WSW 9 12 1023.0 - 8.0 - - 10 - - - -
29/01:00am 12.4 WSW 10 13 1023.3 - 8.0 - Partly cloudy 10 - - - -
29/12:30am 12.2 W 7 11 1023.5 - 8.0 - Partly cloudy 10 - - - -
29/12:00am 12.4 WSW 9 14 1023.6 - 8.0 Recent precip. Cloudy 10 - - - -
 
Date/Time
EST
Temp

°C
Wind Pressure Rain
since 9am
mm
Weather Cloud Vis
km
Sea
Height
m
Swell
Dir
 
Speed
knots
Gust
knots
hPa Trend Height
m
Period
s
Dir
28/11:30pm 12.3 SW 11 16 1023.8 - 8.0 - Partly cloudy 10 - - - -
28/11:00pm 12.5 SW 11 15 1024.1 - 7.4 - Partly cloudy 10 - - - -
28/10:30pm 12.5 SW 11 14 1023.9 - 6.8 - Partly cloudy 10 - - - -
28/10:00pm 12.7 SW 11 15 1024.0 - 6.8 - Partly cloudy 10 - - - -
28/09:30pm 12.9 SW 12 17 1024.3 - 6.8 - Partly cloudy 10 - - - -
28/09:00pm 12.5 SW 5 10 1024.3 - 6.8 Recent precip. Cloudy 10 - - - -
28/08:30pm 12.7 WSW 5 8 1024.2 - 6.8 - Partly cloudy 10 - - - -
28/08:04pm 12.9 SW 9 13 1024.0 - 6.4 - Partly cloudy 10 - - - -
28/08:00pm 13.1 SW 10 16 1023.9 - 6.4 - Partly cloudy 10 - - - -
28/07:45pm 13.2 SSW 12 20 1024.3 - 5.8 - Partly cloudy 5 - - - -
28/07:30pm 13.2 WSW 8 10 1023.8 - 4.4 - Partly cloudy 10 - - - -
28/07:00pm 13.6 SW 11 15 1023.7 - 3.8 - Partly cloudy 10 - - - -
28/06:30pm 14.1 WSW 11 17 1023.4 - 3.8 - Partly cloudy 10 - - - -
28/06:00pm 13.8 SW 10 14 1023.0 - 3.8 - Cloudy 10 - - - -
28/05:30pm 14.6 SW 7 9 1022.8 - 3.8 - Partly cloudy 10 - - - -
28/05:00pm 14.7 SW 8 14 1022.5 - 3.8 - Partly cloudy 10 - - - -
28/04:48pm 14.8 SW 15 19 1022.4 - 3.8 - Partly cloudy 10 - - - -
28/04:47pm 14.6 SW 13 19 1022.4 - 3.6 - Partly cloudy 9 - - - -
28/04:30pm 15.1 S 17 30 1022.3 - 3.0 - Partly cloudy 5 - - - -
28/04:29pm 15.2 S 17 30 1022.2 - 2.8 - Partly cloudy 5 - - - -
28/04:26pm 15.0 S 15 30 1022.1 - 1.8 - Partly cloudy 10 - - - -
28/04:00pm 18.1 SSW 15 22 1021.8 - 0.8 - - 10 - - - -
28/03:30pm 17.8 SSW 18 23 1021.5 - 0.8 - Partly cloudy 10 - - - -
28/03:00pm 17.4 S 13 18 1021.4 - 0.8 Recent precip. Mostly clear 10 - - - -
28/02:30pm 15.6 S 13 19 1021.5 - 0.8 - Partly cloudy 10 - - - -
28/02:19pm 15.2 S 15 25 1021.8 - 0.6 - Partly cloudy 8 - - - -
28/02:00pm 17.9 SSW 10 16 1021.5 - 0.0 - Partly cloudy 10 - - - -
28/01:30pm 19.2 S 14 22 1021.5 - 0.0 - Partly cloudy 10 - - - -
28/01:00pm 18.5 S 14 21 1021.5 - 0.0 - Partly cloudy 10 - - - -
28/12:30pm 19.3 S 14 19 1021.5 - 0.0 - - 10 - - - -
28/12:00pm 19.0 S 15 23 1021.8 - 0.0 - Partly cloudy 10 - - - -
28/11:30am 18.9 S 16 23 1022.0 - 0.0 - Partly cloudy 10 - - - -
28/11:00am 18.2 S 12 19 1022.4 - 0.0 - Partly cloudy 10 - - - -
28/10:30am 16.5 SW 9 12 1022.7 - 0.0 - Partly cloudy 10 - - - -
28/10:00am 15.7 SSW 11 15 1022.7 - 0.0 - Partly cloudy 10 - - - -
28/09:30am 15.6 SW 9 13 1022.4 - 0.0 - Partly cloudy 10 - - - -
28/09:00am 15.5 SW 7 13 1022.3 - 33.2 - Cloudy 10 - - - -
28/08:30am 15.3 WSW 8 12 1022.2 - 33.2 - Partly cloudy 10 - - - -
28/08:00am 14.3 W 9 12 1021.9 - 33.2 - Partly cloudy 10 - - - -
28/07:40am 14.1 SW 6 8 1021.8 - 32.4 - Partly cloudy 5 - - - -
28/07:30am 14.1 WSW 7 11 1021.6 - 31.0 - Partly cloudy 9 - - - -
28/07:24am 14.1 WSW 7 9 1021.6 - 31.0 - Partly cloudy 10 - - - -
28/07:07am 14.1 WSW 9 12 1021.3 - 30.6 - Partly cloudy 5 - - - -
28/07:00am 14.1 WSW 7 10 1021.2 - 29.2 - Partly cloudy 10 - - - -
28/06:30am 13.8 WSW 8 11 1021.3 - 29.2 - Partly cloudy 10 - - - -
28/06:00am 14.0 WSW 7 11 1021.0 - 29.2 - Cloudy 10 - - - -
28/05:30am 15.9 S 9 15 1020.6 - 29.2 - Partly cloudy 10 - - - -
28/05:00am 15.9 S 9 15 1020.4 - 29.2 - Partly cloudy 10 - - - -
28/04:30am 15.9 S 9 15 1020.1 - 29.2 - Partly cloudy 10 - - - -
28/04:00am 15.7 S 8 11 1020.1 - 29.2 - Partly cloudy 10 - - - -
28/03:30am 15.7 S 9 13 1020.1 - 29.2 - Partly cloudy 10 - - - -
28/03:00am 15.5 S 8 12 1019.9 - 29.2 - Cloudy 10 - - - -
28/02:30am 14.0 SSW 6 8 1019.9 - 29.2 - Partly cloudy 10 - - - -
28/02:00am 13.7 WSW 7 9 1020.0 - 29.2 - Partly cloudy 10 - - - -
28/01:50am 13.6 SW 8 13 1020.1 - 29.2 - Partly cloudy 10 - - - -
28/01:35am 13.4 SW 8 11 1020.2 - 28.6 - Partly cloudy 5 - - - -
28/01:30am 13.4 SW 8 11 1020.3 - 27.2 - Partly cloudy 10 - - - -
28/01:00am 13.2 SW 7 11 1020.4 - 27.0 - Partly cloudy 10 - - - -
28/12:30am 14.2 SSW 6 9 1020.0 - 26.8 - Partly cloudy 10 - - - -
28/12:00am 14.2 SW 9 13 1020.0 - 26.6 Rain Cloudy 9 - - - -
 
Date/Time
EST
Temp

°C
Wind Pressure Rain
since 9am
mm
Weather Cloud Vis
km
Sea
Height
m
Swell
Dir
 
Speed
knots
Gust
knots
hPa Trend Height
m
Period
s
Dir
27/11:30pm 14.3 SW 11 13 1020.2 - 25.6 - Partly cloudy 10 - - - -
27/11:00pm 14.9 SE 9 14 1020.3 - 25.4 - Partly cloudy 10 - - - -
27/10:58pm 14.9 SE 10 14 1020.3 - 25.4 - Partly cloudy 8 - - - -
27/10:39pm 15.6 ESE 9 13 1020.3 - 24.6 - Partly cloudy 5 - - - -
27/10:30pm 15.7 SE 9 13 1020.3 - 23.0 - Partly cloudy 10 - - - -
27/10:00pm 15.7 SSE 10 14 1020.1 - 23.0 - Partly cloudy 10 - - - -
27/09:30pm 15.5 SE 10 14 1020.2 - 22.6 - Partly cloudy 10 - - - -
27/09:10pm 15.3 S 9 13 1020.2 - 22.4 - Partly cloudy 10 - - - -
27/09:09pm 15.2 S 9 14 1020.1 - 22.4 - Partly cloudy 10 - - - -
27/09:00pm 15.1 S 13 23 1020.0 - 22.4 Rain Cloudy 6 - - - -
27/08:41pm 16.0 S 13 19 1020.3 - 17.8 - Partly cloudy 4 - - - -
27/08:30pm 17.4 S 13 19 1019.7 - 15.2 - Partly cloudy 10 - - - -
27/08:00pm 17.6 S 14 19 1019.9 - 15.2 - Partly cloudy 10 - - - -
27/07:30pm 17.4 S 12 17 1019.8 - 15.2 - Cloudy 10 - - - -
27/07:00pm 17.5 S 14 21 1019.6 - 15.2 - Partly cloudy 10 - - - -
27/06:30pm 17.5 S 13 20 1019.3 - 15.2 - Partly cloudy 10 - - - -
27/06:00pm 17.4 S 12 18 1019.0 - 15.2 - Mostly cloudy 10 - - - -
27/05:30pm 17.6 S 13 19 1018.9 - 15.2 - Cloudy 10 - - - -
27/05:00pm 17.5 S 11 18 1018.8 - 15.2 - Partly cloudy 10 - - - -
27/04:30pm 17.4 S 12 17 1018.5 - 15.2 - Partly cloudy 10 - - - -
27/04:00pm 17.6 S 13 19 1018.3 - 15.2 - Partly cloudy 10 - - - -
27/03:30pm 17.7 S 14 20 1018.3 - 15.2 - Partly cloudy 10 - - - -
27/03:00pm 18.0 S 13 21 1018.4 - 15.2 - Partly cloudy 10 - - - -
27/02:30pm 18.2 S 13 21 1018.6 - 15.2 - Partly cloudy 10 - - - -
27/02:00pm 18.4 S 13 19 1018.7 - 15.2 - Partly cloudy 10 - - - -
27/01:30pm 18.1 S 14 19 1018.9 - 15.2 - Partly cloudy 10 - - - -
27/01:00pm 18.1 S 14 21 1019.1 - 15.2 - Partly cloudy 10 - - - -
27/12:30pm 18.1 S 13 20 1019.4 - 15.2 - Partly cloudy 10 - - - -
27/12:00pm 18.0 SSE 12 19 1019.7 - 15.2 - Cloudy 10 - - - -
27/11:30am 17.9 SSE 14 19 1020.1 - 15.2 - Partly cloudy 10 - - - -
27/11:00am 17.5 SSE 11 18 1020.3 - 15.2 - Partly cloudy 10 - - - -
27/10:36am 16.7 SSE 11 17 1020.5 - 15.2 - Partly cloudy 10 - - - -
27/10:30am 16.1 SE 11 19 1020.6 - 15.2 - Partly cloudy 10 - - - -
27/10:18am 15.6 SE 12 24 1020.6 - 14.6 - Partly cloudy 5 - - - -
27/10:00am 16.2 SSE 9 19 1020.7 - 13.0 - Partly cloudy 10 - - - -
27/09:30am 14.5 E 13 19 1020.7 - 10.0 - Partly cloudy 5 - - - -
27/09:03am 14.4 ESE 15 26 1020.9 - 3.0 - Partly cloudy 2 - - - -
27/09:00am 14.7 SE 13 21 1020.8 - 35.8 Rain Cloudy 4 - - - -
27/08:46am 15.2 S 15 25 1020.4 - 34.0 - Partly cloudy 3 - - - -
27/08:40am 15.3 SSE 15 22 1020.4 - 33.0 - Partly cloudy 5 - - - -
27/08:30am 16.6 SSE 14 24 1020.3 - 31.8 - Partly cloudy 10 - - - -
27/08:00am 17.2 SE 12 20 1019.9 - 31.8 - Partly cloudy 10 - - - -
27/07:30am 17.1 SE 16 26 1019.4 - 31.8 - Partly cloudy 10 - - - -
27/07:29am 17.1 SE 15 26 1019.4 - 31.8 - Partly cloudy 10 - - - -
27/07:00am 16.4 SE 13 17 1019.2 - 31.8 - Partly cloudy 10 - - - -
27/06:30am 15.7 SE 13 19 1018.9 - 31.6 - Partly cloudy 10 - - - -
27/06:20am 15.2 SE 15 22 1018.9 - 31.6 - Partly cloudy 10 - - - -
27/06:00am 15.2 ESE 12 30 1018.8 - 30.6 Rain Cloudy 1 - - - -
27/05:58am 15.1 ESE 11 30 1018.9 - 29.2 - Partly cloudy 2 - - - -
27/05:30am 15.8 ESE 12 19 1018.3 - 25.6 - Partly cloudy 8 - - - -
27/05:20am 15.9 ESE 13 21 1018.1 - 25.2 - Partly cloudy 8 - - - -
27/05:09am 15.7 ESE 17 24 1017.9 - 24.8 - Partly cloudy 5 - - - -
27/05:00am 15.4 E 9 11 1018.0 - 23.4 - Partly cloudy 6 - - - -
27/04:49am 14.8 E 19 29 1018.1 - 22.2 - Partly cloudy 4 - - - -
27/04:41am 14.7 E 22 29 1018.1 - 20.2 - Partly cloudy 5 - - - -
27/04:40am 14.8 E 21 28 1018.1 - 20.0 - Partly cloudy 6 - - - -
27/04:30am 15.3 E 10 14 1017.7 - 19.0 - Partly cloudy 10 - - - -
27/04:09am 15.9 SE 13 19 1017.6 - 18.0 - Partly cloudy 9 - - - -
27/04:00am 15.4 SE 14 22 1017.5 - 17.8 - Partly cloudy 6 - - - -
27/03:51am 15.2 SE 17 25 1017.7 - 17.0 - Partly cloudy 5 - - - -
27/03:47am 16.0 SE 15 25 1017.7 - 15.8 - Partly cloudy 10 - - - -
27/03:30am 16.6 SE 11 21 1017.6 - 15.6 - Partly cloudy 10 - - - -
27/03:00am 16.5 SE 13 20 1017.5 - 15.0 Recent precip. Cloudy 10 - - - -
27/02:44am 16.2 SE 11 19 1017.5 - 15.0 - Partly cloudy 10 - - - -
27/02:30am 16.0 SE 11 16 1017.7 - 14.8 - Partly cloudy 4 - - - -
27/02:23am 16.1 SE 11 19 1017.8 - 13.6 - Partly cloudy 5 - - - -
27/02:00am 16.1 ESE 9 13 1018.1 - 12.2 - Partly cloudy 10 - - - -
27/01:30am 16.6 ESE 9 18 1018.3 - 10.4 - Partly cloudy 10 - - - -
27/01:00am 16.5 E 10 15 1018.5 - 9.6 - Partly cloudy 10 - - - -
27/12:30am 16.2 E 8 12 1019.0 - 9.4 - Partly cloudy 10 - - - -
27/12:00am 15.5 E 12 20 1019.4 - 7.6 Rain Mostly cloudy 10 - - - -
 
Date/Time
EST
Temp

°C
Wind Pressure Rain
since 9am
mm
Weather Cloud Vis
km
Sea
Height
m
Swell
Dir
 
Speed
knots
Gust
knots
hPa Trend Height
m
Period
s
Dir
26/11:30pm 15.7 E 15 25 1019.4 - 5.4 - Partly cloudy 9 - - - -
26/11:00pm 16.2 E 11 16 1019.4 - 4.4 - Partly cloudy 10 - - - -
26/10:30pm 15.7 ESE 12 21 1019.4 - 4.4 - Partly cloudy 10 - - - -
26/10:00pm 16.1 SE 13 19 1019.5 - 4.0 - Partly cloudy 10 - - - -

Other Formats:

Comma delimited format used in spreadsheet applications
http://www.bom.gov.au/fwo/IDN60701/IDN60701.94786.axf

JavaScript Object Notation format (JSON) in row-major order
http://www.bom.gov.au/fwo/IDN60701/IDN60701.94786.json